sensor_id;sensor_type;location;lat;lon;timestamp;P1;durP1;ratioP1;P2;durP2;ratioP2
52718;SDS011;38616;42.140;24.760;2022-11-15T00:00:07;38.83;;;20.58;;
52718;SDS011;38616;42.140;24.760;2022-11-15T00:02:32;36.78;;;19.80;;
52718;SDS011;38616;42.140;24.760;2022-11-15T00:04:58;42.38;;;20.67;;
52718;SDS011;38616;42.140;24.760;2022-11-15T00:07:23;35.75;;;19.40;;
52718;SDS011;38616;42.140;24.760;2022-11-15T00:09:49;37.90;;;20.15;;
52718;SDS011;38616;42.140;24.760;2022-11-15T00:12:14;35.90;;;19.52;;
52718;SDS011;38616;42.140;24.760;2022-11-15T00:14:39;38.75;;;20.95;;
52718;SDS011;38616;42.140;24.760;2022-11-15T00:17:05;36.50;;;19.35;;
52718;SDS011;38616;42.140;24.760;2022-11-15T00:19:30;40.05;;;20.42;;
52718;SDS011;38616;42.140;24.760;2022-11-15T00:21:56;41.80;;;21.63;;
52718;SDS011;38616;42.140;24.760;2022-11-15T00:24:21;36.08;;;18.50;;
52718;SDS011;38616;42.140;24.760;2022-11-15T00:26:46;37.25;;;19.45;;
52718;SDS011;38616;42.140;24.760;2022-11-15T00:29:12;36.72;;;19.48;;
52718;SDS011;38616;42.140;24.760;2022-11-15T00:31:37;37.17;;;19.42;;
52718;SDS011;38616;42.140;24.760;2022-11-15T00:34:03;39.60;;;19.33;;
52718;SDS011;38616;42.140;24.760;2022-11-15T00:36:28;40.28;;;21.13;;
52718;SDS011;38616;42.140;24.760;2022-11-15T00:38:53;37.10;;;18.83;;
52718;SDS011;38616;42.140;24.760;2022-11-15T00:41:19;39.13;;;20.08;;
52718;SDS011;38616;42.140;24.760;2022-11-15T00:43:44;35.65;;;18.30;;
52718;SDS011;38616;42.140;24.760;2022-11-15T00:46:09;36.42;;;18.65;;
52718;SDS011;38616;42.140;24.760;2022-11-15T00:48:35;36.67;;;18.27;;
52718;SDS011;38616;42.140;24.760;2022-11-15T00:51:01;30.27;;;17.48;;
52718;SDS011;38616;42.140;24.760;2022-11-15T00:53:27;38.28;;;17.98;;
52718;SDS011;38616;42.140;24.760;2022-11-15T00:55:52;36.65;;;18.40;;
52718;SDS011;38616;42.140;24.760;2022-11-15T00:58:18;37.35;;;17.58;;
52718;SDS011;38616;42.140;24.760;2022-11-15T01:00:44;34.50;;;18.10;;
52718;SDS011;38616;42.140;24.760;2022-11-15T01:03:09;35.22;;;17.65;;
52718;SDS011;38616;42.140;24.760;2022-11-15T01:05:36;33.65;;;17.27;;
52718;SDS011;38616;42.140;24.760;2022-11-15T01:08:02;35.65;;;18.27;;
52718;SDS011;38616;42.140;24.760;2022-11-15T01:10:28;33.33;;;18.05;;
52718;SDS011;38616;42.140;24.760;2022-11-15T01:12:53;38.55;;;20.40;;
52718;SDS011;38616;42.140;24.760;2022-11-15T01:15:18;34.92;;;19.90;;
52718;SDS011;38616;42.140;24.760;2022-11-15T01:17:44;40.33;;;20.60;;
52718;SDS011;38616;42.140;24.760;2022-11-15T01:20:09;38.17;;;20.58;;
52718;SDS011;38616;42.140;24.760;2022-11-15T01:22:35;37.20;;;19.48;;
52718;SDS011;38616;42.140;24.760;2022-11-15T01:25:00;35.65;;;18.83;;
52718;SDS011;38616;42.140;24.760;2022-11-15T01:27:26;39.72;;;19.98;;
52718;SDS011;38616;42.140;24.760;2022-11-15T01:29:51;38.55;;;20.23;;
52718;SDS011;38616;42.140;24.760;2022-11-15T01:32:17;34.97;;;19.20;;
52718;SDS011;38616;42.140;24.760;2022-11-15T01:34:42;42.03;;;20.80;;
52718;SDS011;38616;42.140;24.760;2022-11-15T01:37:08;34.17;;;18.50;;
52718;SDS011;38616;42.140;24.760;2022-11-15T01:39:33;38.45;;;18.95;;
52718;SDS011;38616;42.140;24.760;2022-11-15T01:41:59;36.33;;;19.48;;
52718;SDS011;38616;42.140;24.760;2022-11-15T01:47:03;38.22;;;19.27;;
52718;SDS011;38616;42.140;24.760;2022-11-15T01:49:37;34.25;;;18.98;;
52718;SDS011;38616;42.140;24.760;2022-11-15T01:52:09;34.55;;;19.05;;
52718;SDS011;38616;42.140;24.760;2022-11-15T01:54:38;37.13;;;18.67;;
52718;SDS011;38616;42.140;24.760;2022-11-15T01:57:06;38.35;;;21.45;;
52718;SDS011;38616;42.140;24.760;2022-11-15T01:59:34;38.85;;;18.95;;
52718;SDS011;38616;42.140;24.760;2022-11-15T02:02:01;35.35;;;18.17;;
52718;SDS011;38616;42.140;24.760;2022-11-15T02:04:35;37.95;;;19.15;;
52718;SDS011;38616;42.140;24.760;2022-11-15T02:07:05;35.58;;;17.83;;
52718;SDS011;38616;42.140;24.760;2022-11-15T02:09:33;33.08;;;18.13;;
52718;SDS011;38616;42.140;24.760;2022-11-15T02:12:01;35.67;;;18.40;;
52718;SDS011;38616;42.140;24.760;2022-11-15T02:14:26;36.92;;;19.17;;
52718;SDS011;38616;42.140;24.760;2022-11-15T02:31:29;32.65;;;17.70;;
52718;SDS011;38616;42.140;24.760;2022-11-15T02:34:10;33.10;;;18.17;;
52718;SDS011;38616;42.140;24.760;2022-11-15T02:37:17;30.55;;;17.27;;
52718;SDS011;38616;42.140;24.760;2022-11-15T02:40:00;33.17;;;16.55;;
52718;SDS011;38616;42.140;24.760;2022-11-15T02:42:36;31.55;;;17.20;;
52718;SDS011;38616;42.140;24.760;2022-11-15T02:45:33;37.47;;;17.60;;
52718;SDS011;38616;42.140;24.760;2022-11-15T02:48:04;34.25;;;17.40;;
52718;SDS011;38616;42.140;24.760;2022-11-15T02:50:31;32.38;;;17.88;;
52718;SDS011;38616;42.140;24.760;2022-11-15T02:52:58;22.63;;;11.13;;
52718;SDS011;38616;42.140;24.760;2022-11-15T02:55:34;32.85;;;17.73;;
52718;SDS011;38616;42.140;24.760;2022-11-15T03:01:11;33.60;;;16.92;;
52718;SDS011;38616;42.140;24.760;2022-11-15T03:06:06;30.83;;;16.95;;
52718;SDS011;38616;42.140;24.760;2022-11-15T03:11:35;31.77;;;16.85;;
52718;SDS011;38616;42.140;24.760;2022-11-15T03:16:42;36.00;;;17.98;;
52718;SDS011;38616;42.140;24.760;2022-11-15T03:22:05;34.08;;;16.95;;
52718;SDS011;38616;42.140;24.760;2022-11-15T03:24:33;31.75;;;16.80;;
52718;SDS011;38616;42.140;24.760;2022-11-15T03:27:03;44.08;;;17.52;;
52718;SDS011;38616;42.140;24.760;2022-11-15T03:29:36;33.65;;;18.13;;
52718;SDS011;38616;42.140;24.760;2022-11-15T03:32:07;35.17;;;17.83;;
52718;SDS011;38616;42.140;24.760;2022-11-15T03:37:30;31.77;;;16.92;;
52718;SDS011;38616;42.140;24.760;2022-11-15T03:40:01;35.78;;;17.90;;
52718;SDS011;38616;42.140;24.760;2022-11-15T03:42:37;36.63;;;18.48;;
52718;SDS011;38616;42.140;24.760;2022-11-15T03:45:10;34.15;;;18.40;;
52718;SDS011;38616;42.140;24.760;2022-11-15T03:47:45;36.10;;;17.75;;
52718;SDS011;38616;42.140;24.760;2022-11-15T03:50:20;34.17;;;17.10;;
52718;SDS011;38616;42.140;24.760;2022-11-15T03:52:48;33.60;;;17.00;;
52718;SDS011;38616;42.140;24.760;2022-11-15T03:55:18;24.60;;;11.98;;
52718;SDS011;38616;42.140;24.760;2022-11-15T03:57:45;31.95;;;16.00;;
52718;SDS011;38616;42.140;24.760;2022-11-15T04:00:14;31.83;;;16.00;;
52718;SDS011;38616;42.140;24.760;2022-11-15T04:02:40;30.10;;;15.10;;
52718;SDS011;38616;42.140;24.760;2022-11-15T04:05:05;29.80;;;15.48;;
52718;SDS011;38616;42.140;24.760;2022-11-15T04:07:31;32.15;;;16.15;;
52718;SDS011;38616;42.140;24.760;2022-11-15T04:09:56;26.30;;;14.15;;
52718;SDS011;38616;42.140;24.760;2022-11-15T04:12:37;31.92;;;15.18;;
52718;SDS011;38616;42.140;24.760;2022-11-15T04:17:37;33.78;;;16.10;;
52718;SDS011;38616;42.140;24.760;2022-11-15T04:20:05;30.52;;;16.33;;
52718;SDS011;38616;42.140;24.760;2022-11-15T04:23:02;30.15;;;14.35;;
52718;SDS011;38616;42.140;24.760;2022-11-15T04:25:59;25.27;;;13.45;;
52718;SDS011;38616;42.140;24.760;2022-11-15T04:28:28;26.90;;;14.50;;
52718;SDS011;38616;42.140;24.760;2022-11-15T04:30:53;29.10;;;14.10;;
52718;SDS011;38616;42.140;24.760;2022-11-15T04:33:18;27.25;;;14.25;;
52718;SDS011;38616;42.140;24.760;2022-11-15T04:35:44;28.05;;;13.73;;
52718;SDS011;38616;42.140;24.760;2022-11-15T04:38:29;25.83;;;13.60;;
52718;SDS011;38616;42.140;24.760;2022-11-15T04:40:55;27.23;;;13.00;;
52718;SDS011;38616;42.140;24.760;2022-11-15T04:43:20;30.25;;;14.23;;
52718;SDS011;38616;42.140;24.760;2022-11-15T04:45:45;27.33;;;13.60;;
52718;SDS011;38616;42.140;24.760;2022-11-15T04:48:11;29.17;;;14.10;;
52718;SDS011;38616;42.140;24.760;2022-11-15T04:50:36;31.17;;;12.65;;
52718;SDS011;38616;42.140;24.760;2022-11-15T04:53:01;23.67;;;12.65;;
52718;SDS011;38616;42.140;24.760;2022-11-15T04:55:27;23.85;;;13.75;;
52718;SDS011;38616;42.140;24.760;2022-11-15T04:57:59;26.13;;;14.05;;
52718;SDS011;38616;42.140;24.760;2022-11-15T05:00:26;24.25;;;13.50;;
52718;SDS011;38616;42.140;24.760;2022-11-15T05:02:53;25.90;;;13.82;;
52718;SDS011;38616;42.140;24.760;2022-11-15T05:05:37;32.70;;;14.02;;
52718;SDS011;38616;42.140;24.760;2022-11-15T05:08:03;29.50;;;14.52;;
52718;SDS011;38616;42.140;24.760;2022-11-15T05:10:29;26.48;;;13.40;;
52718;SDS011;38616;42.140;24.760;2022-11-15T05:12:54;32.80;;;15.43;;
52718;SDS011;38616;42.140;24.760;2022-11-15T05:15:20;25.58;;;12.85;;
52718;SDS011;38616;42.140;24.760;2022-11-15T05:17:45;33.70;;;15.55;;
52718;SDS011;38616;42.140;24.760;2022-11-15T05:20:11;27.35;;;12.93;;
52718;SDS011;38616;42.140;24.760;2022-11-15T05:22:37;25.60;;;12.82;;
52718;SDS011;38616;42.140;24.760;2022-11-15T05:25:02;28.45;;;13.88;;
52718;SDS011;38616;42.140;24.760;2022-11-15T05:27:28;29.67;;;14.07;;
52718;SDS011;38616;42.140;24.760;2022-11-15T05:29:53;28.73;;;13.35;;
52718;SDS011;38616;42.140;24.760;2022-11-15T05:32:19;27.67;;;13.48;;
52718;SDS011;38616;42.140;24.760;2022-11-15T05:34:45;26.80;;;12.68;;
52718;SDS011;38616;42.140;24.760;2022-11-15T05:37:11;28.80;;;12.63;;
52718;SDS011;38616;42.140;24.760;2022-11-15T05:39:37;29.08;;;13.07;;
52718;SDS011;38616;42.140;24.760;2022-11-15T05:42:07;29.83;;;15.95;;
52718;SDS011;38616;42.140;24.760;2022-11-15T05:44:35;30.60;;;16.00;;
52718;SDS011;38616;42.140;24.760;2022-11-15T05:49:33;25.88;;;13.73;;
52718;SDS011;38616;42.140;24.760;2022-11-15T05:52:03;27.02;;;13.65;;
52718;SDS011;38616;42.140;24.760;2022-11-15T05:54:33;29.95;;;15.23;;
52718;SDS011;38616;42.140;24.760;2022-11-15T05:57:00;29.58;;;14.95;;
52718;SDS011;38616;42.140;24.760;2022-11-15T05:59:28;33.65;;;16.13;;
52718;SDS011;38616;42.140;24.760;2022-11-15T06:01:55;30.35;;;14.40;;
52718;SDS011;38616;42.140;24.760;2022-11-15T06:04:21;34.83;;;16.48;;
52718;SDS011;38616;42.140;24.760;2022-11-15T06:06:46;30.17;;;13.95;;
52718;SDS011;38616;42.140;24.760;2022-11-15T06:09:11;31.02;;;15.45;;
52718;SDS011;38616;42.140;24.760;2022-11-15T06:11:37;31.13;;;14.55;;
52718;SDS011;38616;42.140;24.760;2022-11-15T06:14:02;28.38;;;13.80;;
52718;SDS011;38616;42.140;24.760;2022-11-15T06:16:28;25.40;;;13.18;;
52718;SDS011;38616;42.140;24.760;2022-11-15T06:18:54;30.10;;;14.15;;
52718;SDS011;38616;42.140;24.760;2022-11-15T06:21:20;33.30;;;15.30;;
52718;SDS011;38616;42.140;24.760;2022-11-15T06:23:45;29.17;;;15.65;;
52718;SDS011;38616;42.140;24.760;2022-11-15T06:26:11;29.60;;;15.50;;
52718;SDS011;38616;42.140;24.760;2022-11-15T06:28:36;24.17;;;12.52;;
52718;SDS011;38616;42.140;24.760;2022-11-15T06:31:05;28.30;;;14.07;;
52718;SDS011;38616;42.140;24.760;2022-11-15T06:33:32;27.38;;;13.30;;
52718;SDS011;38616;42.140;24.760;2022-11-15T06:36:05;36.00;;;18.20;;
52718;SDS011;38616;42.140;24.760;2022-11-15T06:38:32;28.20;;;15.27;;
52718;SDS011;38616;42.140;24.760;2022-11-15T06:41:01;30.80;;;14.25;;
52718;SDS011;38616;42.140;24.760;2022-11-15T06:43:31;35.50;;;16.35;;
52718;SDS011;38616;42.140;24.760;2022-11-15T06:46:00;40.33;;;14.80;;
52718;SDS011;38616;42.140;24.760;2022-11-15T06:48:27;26.10;;;13.10;;
52718;SDS011;38616;42.140;24.760;2022-11-15T06:50:54;27.05;;;13.23;;
52718;SDS011;38616;42.140;24.760;2022-11-15T06:53:22;26.67;;;12.90;;
52718;SDS011;38616;42.140;24.760;2022-11-15T06:55:48;31.58;;;14.45;;
52718;SDS011;38616;42.140;24.760;2022-11-15T06:58:13;28.63;;;13.40;;
52718;SDS011;38616;42.140;24.760;2022-11-15T07:00:39;29.65;;;13.35;;
52718;SDS011;38616;42.140;24.760;2022-11-15T07:03:05;26.13;;;13.48;;
52718;SDS011;38616;42.140;24.760;2022-11-15T07:05:31;27.20;;;12.27;;
52718;SDS011;38616;42.140;24.760;2022-11-15T07:07:56;24.42;;;13.55;;
52718;SDS011;38616;42.140;24.760;2022-11-15T07:10:23;26.50;;;12.82;;
52718;SDS011;38616;42.140;24.760;2022-11-15T07:12:50;35.53;;;18.60;;
52718;SDS011;38616;42.140;24.760;2022-11-15T07:15:16;37.28;;;19.70;;
52718;SDS011;38616;42.140;24.760;2022-11-15T07:17:42;34.40;;;14.77;;
52718;SDS011;38616;42.140;24.760;2022-11-15T07:20:08;36.20;;;14.65;;
52718;SDS011;38616;42.140;24.760;2022-11-15T07:22:33;26.23;;;13.02;;
52718;SDS011;38616;42.140;24.760;2022-11-15T07:24:59;25.85;;;12.05;;
52718;SDS011;38616;42.140;24.760;2022-11-15T07:27:24;25.90;;;11.20;;
52718;SDS011;38616;42.140;24.760;2022-11-15T07:29:49;22.95;;;11.38;;
52718;SDS011;38616;42.140;24.760;2022-11-15T07:32:15;25.13;;;13.18;;
52718;SDS011;38616;42.140;24.760;2022-11-15T07:34:41;25.38;;;12.85;;
52718;SDS011;38616;42.140;24.760;2022-11-15T07:37:06;29.38;;;13.18;;
52718;SDS011;38616;42.140;24.760;2022-11-15T07:39:32;23.40;;;11.02;;
52718;SDS011;38616;42.140;24.760;2022-11-15T07:41:57;26.15;;;12.10;;
52718;SDS011;38616;42.140;24.760;2022-11-15T07:44:41;35.33;;;13.85;;
52718;SDS011;38616;42.140;24.760;2022-11-15T07:47:06;26.05;;;13.73;;
52718;SDS011;38616;42.140;24.760;2022-11-15T07:49:32;25.20;;;11.95;;
52718;SDS011;38616;42.140;24.760;2022-11-15T07:51:57;38.38;;;12.65;;
52718;SDS011;38616;42.140;24.760;2022-11-15T07:54:23;28.88;;;13.93;;
52718;SDS011;38616;42.140;24.760;2022-11-15T07:56:48;24.52;;;12.25;;
52718;SDS011;38616;42.140;24.760;2022-11-15T07:59:13;24.95;;;12.93;;
52718;SDS011;38616;42.140;24.760;2022-11-15T08:01:39;25.10;;;12.80;;
52718;SDS011;38616;42.140;24.760;2022-11-15T08:04:04;23.27;;;12.43;;
52718;SDS011;38616;42.140;24.760;2022-11-15T08:06:30;24.95;;;12.60;;
52718;SDS011;38616;42.140;24.760;2022-11-15T08:08:55;27.83;;;12.15;;
52718;SDS011;38616;42.140;24.760;2022-11-15T08:11:20;24.27;;;13.45;;
52718;SDS011;38616;42.140;24.760;2022-11-15T08:13:46;27.27;;;12.65;;
52718;SDS011;38616;42.140;24.760;2022-11-15T08:16:11;25.13;;;13.18;;
52718;SDS011;38616;42.140;24.760;2022-11-15T08:18:37;29.80;;;14.85;;
52718;SDS011;38616;42.140;24.760;2022-11-15T08:21:03;27.85;;;13.15;;
52718;SDS011;38616;42.140;24.760;2022-11-15T08:23:29;27.08;;;13.52;;
52718;SDS011;38616;42.140;24.760;2022-11-15T08:26:14;29.00;;;13.38;;
52718;SDS011;38616;42.140;24.760;2022-11-15T08:28:39;31.38;;;13.98;;
52718;SDS011;38616;42.140;24.760;2022-11-15T08:31:05;26.98;;;14.13;;
52718;SDS011;38616;42.140;24.760;2022-11-15T08:33:31;36.75;;;15.65;;
52718;SDS011;38616;42.140;24.760;2022-11-15T08:36:00;37.03;;;17.98;;
52718;SDS011;38616;42.140;24.760;2022-11-15T08:38:26;42.00;;;23.23;;
52718;SDS011;38616;42.140;24.760;2022-11-15T08:40:54;38.38;;;17.92;;
52718;SDS011;38616;42.140;24.760;2022-11-15T08:43:26;32.33;;;16.80;;
52718;SDS011;38616;42.140;24.760;2022-11-15T08:45:51;33.25;;;17.90;;
52718;SDS011;38616;42.140;24.760;2022-11-15T08:48:16;36.03;;;17.67;;
52718;SDS011;38616;42.140;24.760;2022-11-15T08:50:42;35.17;;;15.68;;
52718;SDS011;38616;42.140;24.760;2022-11-15T08:53:09;32.75;;;17.52;;
52718;SDS011;38616;42.140;24.760;2022-11-15T08:55:38;33.00;;;15.82;;
52718;SDS011;38616;42.140;24.760;2022-11-15T08:58:05;31.88;;;17.33;;
52718;SDS011;38616;42.140;24.760;2022-11-15T09:00:30;34.97;;;17.23;;
52718;SDS011;38616;42.140;24.760;2022-11-15T09:02:56;34.70;;;18.33;;
52718;SDS011;38616;42.140;24.760;2022-11-15T09:05:21;32.72;;;17.48;;
52718;SDS011;38616;42.140;24.760;2022-11-15T09:07:46;32.63;;;17.75;;
52718;SDS011;38616;42.140;24.760;2022-11-15T09:10:12;34.55;;;16.20;;
52718;SDS011;38616;42.140;24.760;2022-11-15T09:12:37;29.52;;;16.92;;
52718;SDS011;38616;42.140;24.760;2022-11-15T09:15:04;34.70;;;18.85;;
52718;SDS011;38616;42.140;24.760;2022-11-15T09:17:30;37.83;;;17.52;;
52718;SDS011;38616;42.140;24.760;2022-11-15T09:19:55;34.28;;;16.45;;
52718;SDS011;38616;42.140;24.760;2022-11-15T09:22:21;30.25;;;15.40;;
52718;SDS011;38616;42.140;24.760;2022-11-15T09:24:46;29.90;;;16.33;;
52718;SDS011;38616;42.140;24.760;2022-11-15T09:27:11;33.60;;;17.17;;
52718;SDS011;38616;42.140;24.760;2022-11-15T09:29:38;33.13;;;17.70;;
52718;SDS011;38616;42.140;24.760;2022-11-15T09:32:03;34.58;;;18.48;;
52718;SDS011;38616;42.140;24.760;2022-11-15T09:34:29;36.10;;;17.38;;
52718;SDS011;38616;42.140;24.760;2022-11-15T09:36:54;36.17;;;19.52;;
52718;SDS011;38616;42.140;24.760;2022-11-15T09:39:20;33.03;;;19.40;;
52718;SDS011;38616;42.140;24.760;2022-11-15T09:49:57;37.25;;;21.10;;
52718;SDS011;38616;42.140;24.760;2022-11-15T09:52:24;38.08;;;19.02;;
52718;SDS011;38616;42.140;24.760;2022-11-15T09:54:51;39.83;;;20.45;;
52718;SDS011;38616;42.140;24.760;2022-11-15T09:59:58;37.78;;;18.55;;
52718;SDS011;38616;42.140;24.760;2022-11-15T10:02:51;38.15;;;18.08;;
52718;SDS011;38616;42.140;24.760;2022-11-15T10:05:20;31.30;;;17.48;;
52718;SDS011;38616;42.140;24.760;2022-11-15T10:10:46;33.50;;;17.67;;
52718;SDS011;38616;42.140;24.760;2022-11-15T10:13:20;35.17;;;18.73;;
52718;SDS011;38616;42.140;24.760;2022-11-15T10:15:49;34.35;;;18.55;;
52718;SDS011;38616;42.140;24.760;2022-11-15T10:21:13;34.95;;;16.20;;
52718;SDS011;38616;42.140;24.760;2022-11-15T10:23:42;35.40;;;17.58;;
52718;SDS011;38616;42.140;24.760;2022-11-15T10:26:10;30.75;;;16.92;;
52718;SDS011;38616;42.140;24.760;2022-11-15T10:28:39;32.35;;;17.73;;
52718;SDS011;38616;42.140;24.760;2022-11-15T10:31:10;30.85;;;17.00;;
52718;SDS011;38616;42.140;24.760;2022-11-15T10:33:47;31.23;;;16.85;;
52718;SDS011;38616;42.140;24.760;2022-11-15T10:39:01;35.55;;;17.52;;
52718;SDS011;38616;42.140;24.760;2022-11-15T10:46:40;33.80;;;18.00;;
52718;SDS011;38616;42.140;24.760;2022-11-15T10:51:52;31.35;;;18.20;;
52718;SDS011;38616;42.140;24.760;2022-11-15T10:54:54;32.63;;;17.55;;
52718;SDS011;38616;42.140;24.760;2022-11-15T10:57:25;31.75;;;17.02;;
52718;SDS011;38616;42.140;24.760;2022-11-15T10:59:55;31.65;;;17.92;;
52718;SDS011;38616;42.140;24.760;2022-11-15T11:02:36;29.95;;;17.92;;
52718;SDS011;38616;42.140;24.760;2022-11-15T11:05:05;33.90;;;17.13;;
52718;SDS011;38616;42.140;24.760;2022-11-15T11:07:55;33.20;;;17.60;;
52718;SDS011;38616;42.140;24.760;2022-11-15T11:10:23;33.40;;;18.55;;
52718;SDS011;38616;42.140;24.760;2022-11-15T11:12:49;36.63;;;18.63;;
52718;SDS011;38616;42.140;24.760;2022-11-15T11:15:15;33.53;;;18.20;;
52718;SDS011;38616;42.140;24.760;2022-11-15T11:25:28;39.85;;;17.27;;
52718;SDS011;38616;42.140;24.760;2022-11-15T11:28:10;44.55;;;22.60;;
52718;SDS011;38616;42.140;24.760;2022-11-15T11:31:05;42.63;;;20.70;;
52718;SDS011;38616;42.140;24.760;2022-11-15T11:33:38;33.15;;;17.23;;
52718;SDS011;38616;42.140;24.760;2022-11-15T11:36:26;35.65;;;18.08;;
52718;SDS011;38616;42.140;24.760;2022-11-15T11:48:22;32.58;;;17.92;;
52718;SDS011;38616;42.140;24.760;2022-11-15T11:51:09;37.67;;;19.02;;
52718;SDS011;38616;42.140;24.760;2022-11-15T11:53:46;35.90;;;18.13;;
52718;SDS011;38616;42.140;24.760;2022-11-15T11:56:39;31.83;;;18.38;;
52718;SDS011;38616;42.140;24.760;2022-11-15T12:04:41;29.65;;;16.80;;
52718;SDS011;38616;42.140;24.760;2022-11-15T12:07:20;36.65;;;20.05;;
52718;SDS011;38616;42.140;24.760;2022-11-15T12:10:01;31.98;;;17.98;;
52718;SDS011;38616;42.140;24.760;2022-11-15T12:17:33;29.77;;;17.15;;
52718;SDS011;38616;42.140;24.760;2022-11-15T12:20:01;27.27;;;16.45;;
52718;SDS011;38616;42.140;24.760;2022-11-15T12:27:51;36.33;;;17.85;;
52718;SDS011;38616;42.140;24.760;2022-11-15T12:30:21;37.47;;;20.45;;
52718;SDS011;38616;42.140;24.760;2022-11-15T12:32:52;33.67;;;19.08;;
52718;SDS011;38616;42.140;24.760;2022-11-15T12:35:24;37.03;;;20.92;;
52718;SDS011;38616;42.140;24.760;2022-11-15T12:37:51;36.92;;;20.27;;
52718;SDS011;38616;42.140;24.760;2022-11-15T12:42:57;36.17;;;19.13;;
52718;SDS011;38616;42.140;24.760;2022-11-15T12:45:47;37.65;;;20.33;;
52718;SDS011;38616;42.140;24.760;2022-11-15T13:01:10;31.88;;;16.13;;
52718;SDS011;38616;42.140;24.760;2022-11-15T13:09:52;33.08;;;17.85;;
52718;SDS011;38616;42.140;24.760;2022-11-15T13:17:26;39.92;;;20.83;;
52718;SDS011;38616;42.140;24.760;2022-11-15T13:20:02;34.97;;;19.80;;
52718;SDS011;38616;42.140;24.760;2022-11-15T13:30:34;31.65;;;18.40;;
52718;SDS011;38616;42.140;24.760;2022-11-15T13:33:06;31.70;;;17.13;;
52718;SDS011;38616;42.140;24.760;2022-11-15T13:35:36;35.92;;;20.60;;
52718;SDS011;38616;42.140;24.760;2022-11-15T13:38:05;34.95;;;20.02;;
52718;SDS011;38616;42.140;24.760;2022-11-15T13:40:36;35.25;;;19.30;;
52718;SDS011;38616;42.140;24.760;2022-11-15T13:46:03;36.88;;;21.25;;
52718;SDS011;38616;42.140;24.760;2022-11-15T13:48:30;38.22;;;20.80;;
52718;SDS011;38616;42.140;24.760;2022-11-15T13:50:55;34.95;;;19.95;;
52718;SDS011;38616;42.140;24.760;2022-11-15T13:53:22;37.20;;;22.23;;
52718;SDS011;38616;42.140;24.760;2022-11-15T13:55:48;37.58;;;22.00;;
52718;SDS011;38616;42.140;24.760;2022-11-15T13:58:14;43.72;;;21.25;;
52718;SDS011;38616;42.140;24.760;2022-11-15T14:00:41;37.03;;;20.77;;
52718;SDS011;38616;42.140;24.760;2022-11-15T14:03:29;37.10;;;20.63;;
52718;SDS011;38616;42.140;24.760;2022-11-15T14:06:08;33.63;;;16.65;;
52718;SDS011;38616;42.140;24.760;2022-11-15T14:08:42;37.47;;;19.30;;
52718;SDS011;38616;42.140;24.760;2022-11-15T14:11:22;31.90;;;19.73;;
52718;SDS011;38616;42.140;24.760;2022-11-15T14:16:43;35.00;;;20.00;;
52718;SDS011;38616;42.140;24.760;2022-11-15T14:19:11;38.72;;;21.27;;
52718;SDS011;38616;42.140;24.760;2022-11-15T14:24:44;38.47;;;20.73;;
52718;SDS011;38616;42.140;24.760;2022-11-15T14:30:12;35.72;;;19.55;;
52718;SDS011;38616;42.140;24.760;2022-11-15T14:32:48;37.42;;;19.90;;
52718;SDS011;38616;42.140;24.760;2022-11-15T14:35:17;37.58;;;19.70;;
52718;SDS011;38616;42.140;24.760;2022-11-15T14:37:46;38.13;;;20.23;;
52718;SDS011;38616;42.140;24.760;2022-11-15T14:40:13;36.22;;;21.52;;
52718;SDS011;38616;42.140;24.760;2022-11-15T14:42:41;38.20;;;19.60;;
52718;SDS011;38616;42.140;24.760;2022-11-15T14:45:14;34.03;;;18.50;;
52718;SDS011;38616;42.140;24.760;2022-11-15T14:47:46;38.45;;;20.00;;
52718;SDS011;38616;42.140;24.760;2022-11-15T14:50:16;41.20;;;19.67;;
52718;SDS011;38616;42.140;24.760;2022-11-15T14:52:43;34.88;;;19.70;;
52718;SDS011;38616;42.140;24.760;2022-11-15T14:57:41;39.55;;;19.85;;
52718;SDS011;38616;42.140;24.760;2022-11-15T15:00:06;39.15;;;20.45;;
52718;SDS011;38616;42.140;24.760;2022-11-15T15:02:33;38.33;;;21.60;;
52718;SDS011;38616;42.140;24.760;2022-11-15T15:04:59;40.50;;;21.50;;
52718;SDS011;38616;42.140;24.760;2022-11-15T15:09:52;47.65;;;22.83;;
52718;SDS011;38616;42.140;24.760;2022-11-15T15:12:18;45.33;;;21.95;;
52718;SDS011;38616;42.140;24.760;2022-11-15T15:17:12;38.63;;;20.80;;
52718;SDS011;38616;42.140;24.760;2022-11-15T15:19:38;38.15;;;20.65;;
52718;SDS011;38616;42.140;24.760;2022-11-15T15:22:03;45.10;;;22.75;;
52718;SDS011;38616;42.140;24.760;2022-11-15T15:24:29;41.30;;;22.80;;
52718;SDS011;38616;42.140;24.760;2022-11-15T15:26:55;43.60;;;22.50;;
52718;SDS011;38616;42.140;24.760;2022-11-15T15:29:20;42.53;;;22.45;;
52718;SDS011;38616;42.140;24.760;2022-11-15T15:31:46;42.22;;;22.92;;
52718;SDS011;38616;42.140;24.760;2022-11-15T15:34:11;40.95;;;23.15;;
52718;SDS011;38616;42.140;24.760;2022-11-15T15:36:36;42.65;;;22.75;;
52718;SDS011;38616;42.140;24.760;2022-11-15T15:39:02;42.28;;;22.88;;
52718;SDS011;38616;42.140;24.760;2022-11-15T15:41:27;39.85;;;21.65;;
52718;SDS011;38616;42.140;24.760;2022-11-15T15:43:53;47.28;;;23.60;;
52718;SDS011;38616;42.140;24.760;2022-11-15T15:46:18;46.40;;;22.70;;
52718;SDS011;38616;42.140;24.760;2022-11-15T15:48:45;48.33;;;25.25;;
52718;SDS011;38616;42.140;24.760;2022-11-15T15:51:11;42.50;;;24.10;;
52718;SDS011;38616;42.140;24.760;2022-11-15T15:53:37;45.47;;;23.30;;
52718;SDS011;38616;42.140;24.760;2022-11-15T15:56:03;46.78;;;25.88;;
52718;SDS011;38616;42.140;24.760;2022-11-15T15:58:29;43.78;;;24.10;;
52718;SDS011;38616;42.140;24.760;2022-11-15T16:00:56;43.40;;;24.20;;
52718;SDS011;38616;42.140;24.760;2022-11-15T16:03:22;53.53;;;25.27;;
52718;SDS011;38616;42.140;24.760;2022-11-15T16:05:49;49.08;;;25.42;;
52718;SDS011;38616;42.140;24.760;2022-11-15T16:08:18;48.47;;;24.48;;
52718;SDS011;38616;42.140;24.760;2022-11-15T16:10:45;44.63;;;23.60;;
52718;SDS011;38616;42.140;24.760;2022-11-15T16:13:11;47.60;;;23.55;;
52718;SDS011;38616;42.140;24.760;2022-11-15T16:15:37;48.90;;;23.27;;
52718;SDS011;38616;42.140;24.760;2022-11-15T16:18:03;45.50;;;24.38;;
52718;SDS011;38616;42.140;24.760;2022-11-15T16:20:39;50.92;;;24.05;;
52718;SDS011;38616;42.140;24.760;2022-11-15T16:23:10;43.97;;;23.02;;
52718;SDS011;38616;42.140;24.760;2022-11-15T16:25:41;47.38;;;25.00;;
52718;SDS011;38616;42.140;24.760;2022-11-15T16:30:47;56.22;;;25.25;;
52718;SDS011;38616;42.140;24.760;2022-11-15T16:33:13;45.03;;;25.00;;
52718;SDS011;38616;42.140;24.760;2022-11-15T16:35:39;49.15;;;24.75;;
52718;SDS011;38616;42.140;24.760;2022-11-15T16:38:04;47.88;;;24.55;;
52718;SDS011;38616;42.140;24.760;2022-11-15T16:40:31;49.80;;;25.10;;
52718;SDS011;38616;42.140;24.760;2022-11-15T16:42:58;46.72;;;24.35;;
52718;SDS011;38616;42.140;24.760;2022-11-15T16:45:28;46.10;;;25.08;;
52718;SDS011;38616;42.140;24.760;2022-11-15T16:47:54;52.90;;;26.08;;
52718;SDS011;38616;42.140;24.760;2022-11-15T16:50:21;68.88;;;31.92;;
52718;SDS011;38616;42.140;24.760;2022-11-15T16:52:49;54.75;;;25.90;;